This is the latest recevied weather packets stored in our database for station/object HS6PNA-1. If no packets are shown the sender has not sent any weather packets the latest 10 day(s).
| Time | Temp. | Humidity | Pressure | Rain* | Wind** | Luminosity | Snow |
|---|---|---|---|---|---|---|---|
| 1777811391 | 37.22° C | 38% | 1001 hPa | - | - | 0 W/m² | - |
| 1777810467 | 37.22° C | 40% | 1000 hPa | - | - | 0 W/m² | - |
| 1777809542 | 37.78° C | 36% | 1000 hPa | - | - | 0 W/m² | - |
| 1777808618 | 38.33° C | 33% | 1000 hPa | - | - | 0 W/m² | - |
| 1777807693 | 38.33° C | 34% | 1000 hPa | - | - | 2 W/m² | - |
| 1777806769 | 38.89° C | 31% | 1000 hPa | - | - | 9 W/m² | - |
| 1777805844 | 39.44° C | 31% | 999 hPa | - | - | 16 W/m² | - |
| 1777804920 | 39.44° C | 31% | 999 hPa | - | - | 35 W/m² | - |
| 1777803995 | 40° C | 30% | 999 hPa | - | - | 61 W/m² | - |
| 1777803071 | 40.56° C | 30% | 999 hPa | - | - | 63 W/m² | - |
| 1777802147 | 41.11° C | 30% | 999 hPa | - | - | 79 W/m² | - |
| 1777801222 | 41.11° C | 30% | 999 hPa | - | - | 126 W/m² | - |
| 1777800297 | 41.67° C | 29% | 999 hPa | - | - | 123 W/m² | - |
| 1777799373 | 41.67° C | 28% | 999 hPa | - | - | 222 W/m² | - |
| 1777798448 | 41.11° C | 28% | 999 hPa | - | - | 218 W/m² | - |
| 1777797524 | 41.67° C | 28% | 1000 hPa | - | - | 284 W/m² | - |
| 1777796599 | 41.67° C | 27% | 1000 hPa | - | - | 286 W/m² | - |
| 1777795675 | 41.67° C | 28% | 1000 hPa | - | - | 288 W/m² | - |
| 1777794750 | 41.67° C | 28% | 1000 hPa | - | - | 304 W/m² | - |
| 1777793826 | 41.67° C | 29% | 1000 hPa | - | - | 325 W/m² | - |
| 1777792901 | 41.11° C | 31% | 1001 hPa | - | - | 400 W/m² | - |
| 1777791978 | 39.44° C | 36% | 1001 hPa | - | - | 136 W/m² | - |
| 1777791052 | 39.44° C | 35% | 1001 hPa | - | - | 91 W/m² | - |
| 1777790128 | 40.56° C | 35% | 1002 hPa | - | - | 202 W/m² | - |
| 1777789204 | 40.56° C | 35% | 1002 hPa | - | - | 367 W/m² | - |
* Rain since midnight (hover to see other rain measurements)
** Current wind speed in m/s (hover to see current wind gust speed)